createdAt,value
2019-05-07T00:01:16.831Z,65.50
2019-05-07T00:03:46.141Z,65.20
2019-05-07T00:06:15.871Z,65.00
2019-05-07T00:08:45.180Z,65.00
2019-05-07T00:11:14.500Z,65.30
2019-05-07T00:13:46.932Z,65.10
2019-05-07T00:16:16.567Z,65.30
2019-05-07T00:18:46.941Z,65.10
2019-05-07T00:21:23.160Z,65.00
2019-05-07T00:23:52.655Z,65.70
2019-05-07T00:26:22.655Z,65.70
2019-05-07T00:28:52.794Z,65.30
2019-05-07T00:31:23.314Z,65.20
2019-05-07T00:33:53.934Z,64.90
2019-05-07T00:36:36.700Z,64.90
2019-05-07T00:39:08.828Z,65.50
2019-05-07T00:41:42.827Z,65.40
2019-05-07T00:44:15.112Z,65.50
2019-05-07T00:46:45.232Z,65.80
2019-05-07T00:49:14.407Z,66.10
2019-05-07T00:51:43.547Z,66.00
2019-05-07T00:54:17.144Z,66.00
2019-05-07T00:56:51.986Z,65.40
2019-05-07T00:59:22.877Z,65.90
2019-05-07T01:01:52.843Z,64.60
2019-05-07T01:04:23.061Z,66.40
2019-05-07T01:06:53.679Z,66.10
2019-05-07T01:09:27.856Z,65.90
2019-05-07T01:12:03.247Z,66.10
2019-05-07T01:14:32.689Z,66.40
2019-05-07T01:17:02.524Z,66.70
2019-05-07T01:19:32.846Z,66.90
2019-05-07T01:22:03.173Z,66.60
2019-05-07T01:24:32.373Z,66.70
2019-05-07T01:27:02.201Z,66.90
2019-05-07T01:29:34.109Z,67.50
2019-05-07T01:32:07.578Z,67.60
2019-05-07T01:34:38.096Z,66.80
2019-05-07T01:37:08.800Z,66.60
2019-05-07T01:39:38.406Z,66.10
2019-05-07T01:42:12.587Z,67.00
2019-05-07T01:44:41.995Z,66.30
2019-05-07T01:47:13.059Z,66.50
2019-05-07T01:49:42.319Z,67.60
2019-05-07T01:52:13.305Z,66.20
2019-05-07T01:54:42.770Z,66.80
2019-05-07T01:57:12.374Z,66.50
2019-05-07T01:59:43.417Z,66.40
2019-05-07T02:02:22.952Z,66.80
2019-05-07T02:04:59.514Z,67.00
2019-05-07T02:07:37.115Z,67.20
2019-05-07T02:10:08.401Z,67.30
2019-05-07T02:12:38.511Z,67.30
2019-05-07T02:15:11.956Z,66.90
2019-05-07T02:17:46.766Z,66.80
2019-05-07T02:20:17.365Z,67.40
2019-05-07T02:22:47.808Z,67.50
2019-05-07T02:25:17.118Z,67.30
2019-05-07T02:27:46.244Z,67.40
2019-05-07T02:30:16.036Z,67.30
2019-05-07T02:32:47.737Z,67.40
2019-05-07T02:35:16.945Z,67.10
2019-05-07T02:37:56.616Z,67.20
2019-05-07T02:40:25.522Z,67.50
2019-05-07T02:42:55.872Z,67.50
2019-05-07T02:45:44.029Z,67.40
2019-05-07T02:48:12.957Z,67.40
2019-05-07T02:50:53.752Z,67.50
2019-05-07T02:53:35.719Z,69.40
2019-05-07T02:56:06.123Z,68.40
2019-05-07T02:58:35.330Z,68.30
2019-05-07T03:01:13.823Z,69.10
2019-05-07T03:03:44.986Z,68.30
2019-05-07T03:06:13.736Z,68.90
2019-05-07T03:08:44.138Z,68.00
2019-05-07T03:11:14.329Z,68.30
2019-05-07T03:13:44.045Z,68.50
2019-05-07T03:16:13.274Z,67.70
2019-05-07T03:18:43.807Z,67.80
2019-05-07T03:21:18.611Z,67.40
2019-05-07T03:23:53.977Z,67.70
2019-05-07T03:26:26.891Z,67.10
2019-05-07T03:28:57.411Z,67.70
2019-05-07T03:31:35.670Z,67.80
2019-05-07T03:34:07.068Z,67.60
2019-05-07T03:36:48.298Z,67.50
2019-05-07T03:39:17.044Z,67.80
2019-05-07T03:41:46.183Z,67.80
2019-05-07T03:44:16.806Z,67.60
2019-05-07T03:47:01.133Z,68.10
2019-05-07T03:49:37.213Z,67.90
2019-05-07T03:52:09.334Z,67.30
2019-05-07T03:54:43.096Z,67.00
2019-05-07T03:57:15.495Z,67.40
2019-05-07T03:59:43.735Z,67.50
2019-05-07T04:02:15.547Z,67.70
2019-05-07T04:04:46.207Z,66.90
2019-05-07T04:07:15.335Z,66.90
2019-05-07T04:09:44.245Z,66.70
2019-05-07T04:12:14.569Z,66.80
2019-05-07T04:14:43.541Z,66.60
2019-05-07T04:17:17.241Z,66.70
2019-05-07T04:19:46.247Z,66.70
2019-05-07T04:22:16.468Z,66.90
2019-05-07T04:25:04.451Z,66.40
2019-05-07T04:27:38.492Z,66.30
2019-05-07T04:30:08.178Z,66.90
2019-05-07T04:32:38.946Z,67.20
2019-05-07T04:35:12.711Z,66.40
2019-05-07T04:37:42.768Z,67.20
2019-05-07T04:40:13.394Z,66.70
2019-05-07T04:42:42.859Z,66.60
2019-05-07T04:45:13.592Z,66.40
2019-05-07T04:47:47.256Z,66.40
2019-05-07T04:50:37.232Z,65.90
2019-05-07T04:52:48.611Z,66.00
2019-05-07T04:55:19.207Z,65.30
2019-05-07T04:57:53.333Z,66.80
2019-05-07T05:00:23.269Z,66.30
2019-05-07T05:02:54.023Z,66.20
2019-05-07T05:09:03.018Z,66.10
2019-05-07T05:11:33.702Z,67.50
2019-05-07T05:14:09.306Z,66.60
2019-05-07T05:16:43.135Z,66.10
2019-05-07T05:19:23.002Z,66.20
2019-05-07T05:22:02.041Z,66.20
2019-05-07T05:24:34.095Z,66.60
2019-05-07T05:27:09.471Z,65.50
2019-05-07T05:29:43.064Z,66.10
2019-05-07T05:32:13.211Z,67.40
2019-05-07T05:34:51.982Z,65.80
2019-05-07T05:37:22.639Z,66.20
2019-05-07T05:40:05.602Z,66.10
2019-05-07T05:42:26.261Z,65.40
2019-05-07T05:45:03.114Z,65.00
2019-05-07T05:47:33.862Z,65.10
2019-05-07T05:50:06.159Z,64.90
2019-05-07T05:52:39.405Z,64.70
2019-05-07T05:55:12.015Z,64.60
2019-05-07T05:57:44.445Z,64.20
2019-05-07T06:00:28.374Z,63.50
2019-05-07T06:03:05.884Z,63.30
2019-05-07T06:05:47.164Z,62.80
2019-05-07T06:08:32.581Z,62.30
2019-05-07T06:11:21.898Z,61.70
2019-05-07T06:14:12.966Z,61.50
2019-05-07T06:17:02.098Z,60.70
2019-05-07T06:19:34.192Z,60.30
2019-05-07T06:22:09.392Z,61.10
2019-05-07T06:24:52.113Z,59.70
2019-05-07T06:27:37.355Z,59.50
2019-05-07T06:30:22.526Z,59.50
2019-05-07T06:32:52.342Z,59.40
2019-05-07T06:35:32.445Z,59.20
2019-05-07T06:38:13.801Z,58.90
2019-05-07T06:40:51.952Z,58.90
2019-05-07T06:43:45.932Z,58.90
2019-05-07T06:46:16.337Z,58.60
2019-05-07T06:48:46.268Z,58.00
2019-05-07T06:51:17.573Z,57.60
2019-05-07T06:56:42.116Z,57.30
2019-05-07T06:59:14.679Z,56.00
2019-05-07T07:01:54.031Z,56.00
2019-05-07T07:04:43.824Z,55.60
2019-05-07T07:07:29.860Z,55.60
2019-05-07T07:10:03.307Z,56.40
2019-05-07T07:12:33.299Z,56.00
2019-05-07T07:15:06.961Z,56.00
2019-05-07T07:17:41.853Z,54.60
2019-05-07T07:20:21.863Z,57.30
2019-05-07T07:22:56.166Z,57.30
2019-05-07T07:25:33.371Z,57.10
2019-05-07T07:28:12.103Z,57.40
2019-05-07T07:30:45.188Z,56.90
2019-05-07T07:33:22.411Z,56.10
2019-05-07T07:35:57.486Z,54.80
2019-05-07T07:38:34.630Z,53.70
2019-05-07T07:41:15.687Z,52.60
2019-05-07T07:43:45.774Z,51.20
2019-05-07T07:46:18.866Z,52.30
2019-05-07T07:48:48.197Z,52.70
2019-05-07T07:51:17.497Z,53.00
2019-05-07T07:53:53.932Z,50.40
2019-05-07T07:56:56.354Z,49.60
2019-05-07T07:59:43.381Z,48.60
2019-05-07T08:02:17.775Z,50.30
2019-05-07T08:05:12.385Z,48.30
2019-05-07T08:10:39.519Z,45.40
2019-05-07T08:13:12.239Z,43.30
2019-05-07T08:15:45.837Z,46.00
2019-05-07T08:18:22.250Z,46.10
2019-05-07T08:20:56.119Z,46.10
2019-05-07T08:23:31.790Z,47.10
2019-05-07T08:26:02.529Z,48.80
2019-05-07T08:28:33.238Z,47.70
2019-05-07T08:31:23.259Z,47.80
2019-05-07T08:34:07.684Z,47.40
2019-05-07T08:36:42.008Z,45.10
2019-05-07T08:39:13.582Z,43.20
2019-05-07T08:41:44.697Z,44.90
2019-05-07T08:44:35.848Z,44.60
2019-05-07T08:47:22.904Z,46.00
2019-05-07T08:50:02.874Z,45.10
2019-05-07T08:52:36.740Z,43.20
2019-05-07T08:55:13.710Z,42.60
2019-05-07T08:57:46.005Z,42.00
2019-05-07T09:00:36.030Z,41.00
2019-05-07T09:03:04.959Z,41.30
2019-05-07T09:05:37.945Z,42.40
2019-05-07T09:08:09.158Z,42.20
2019-05-07T09:10:42.946Z,41.30
2019-05-07T09:13:17.547Z,40.90
2019-05-07T09:15:55.706Z,40.40
2019-05-07T09:18:28.127Z,41.50
2019-05-07T09:20:57.352Z,39.50
2019-05-07T09:23:31.697Z,40.00
2019-05-07T09:26:02.752Z,41.80
2019-05-07T09:28:54.222Z,42.20
2019-05-07T09:32:22.631Z,43.40
2019-05-07T09:34:56.934Z,43.60
2019-05-07T09:38:17.575Z,43.80
2019-05-07T09:40:47.292Z,41.20
2019-05-07T09:44:07.485Z,41.20
2019-05-07T09:46:40.091Z,40.80
2019-05-07T09:49:46.670Z,40.20
2019-05-07T09:52:25.079Z,39.90
2019-05-07T09:55:32.588Z,39.30
2019-05-07T09:58:35.727Z,42.40
2019-05-07T10:01:32.578Z,43.40
2019-05-07T10:04:02.768Z,43.50
2019-05-07T10:07:14.967Z,41.60
2019-05-07T10:09:44.309Z,41.70
2019-05-07T10:13:12.280Z,40.60
2019-05-07T10:15:47.787Z,43.80
2019-05-07T10:18:47.432Z,41.40
2019-05-07T10:21:18.282Z,42.30
2019-05-07T10:24:26.040Z,39.20
2019-05-07T10:27:12.487Z,39.40
2019-05-07T10:30:33.384Z,37.60
2019-05-07T10:33:04.867Z,38.70
2019-05-07T10:36:18.357Z,39.40
2019-05-07T10:38:49.070Z,38.80
2019-05-07T10:41:57.815Z,37.90
2019-05-07T10:44:28.498Z,37.20
2019-05-07T10:47:48.741Z,38.10
2019-05-07T10:50:38.719Z,37.50
2019-05-07T10:53:36.806Z,36.20
2019-05-07T10:56:16.895Z,37.10
2019-05-07T10:59:27.012Z,37.50
2019-05-07T11:05:08.900Z,38.00
2019-05-07T11:07:38.283Z,37.60
2019-05-07T11:43:57.562Z,43.70
2019-05-07T11:46:41.591Z,40.60
2019-05-07T11:49:56.970Z,40.90
2019-05-07T11:52:35.192Z,41.00
2019-05-07T11:55:03.975Z,40.30
2019-05-07T11:57:33.587Z,40.00
2019-05-07T12:00:08.625Z,38.30
2019-05-07T12:03:19.442Z,37.20
2019-05-07T12:05:54.067Z,38.00
2019-05-07T13:08:48.803Z,36.40
2019-05-07T13:11:57.475Z,36.80
2019-05-07T13:14:34.317Z,35.10
2019-05-07T13:24:22.739Z,36.20
2019-05-07T13:26:53.603Z,35.30
2019-05-07T13:29:24.405Z,34.60
2019-05-07T13:32:02.833Z,35.30
2019-05-07T13:52:03.153Z,36.10
2019-05-07T13:54:29.674Z,36.10
2019-05-07T13:57:52.458Z,34.70
